Airfield :
LOGIN :

Register | Disclaimer

   EN    FR    IT 

 










Legend :    VFR   Marginal VFR   IFR   Intensive IFR   Very Intensive IFR
Visi :
Ceiling :
>= 8 km
>= 3000ft
5 to 8 km
1000 to 3000 ft
1500m to 5 km
500 to 1000 ft
800 to 1500m
200 to 500 ft
< 800m
< 200 ft
Symbols :   Thunderstorms  Fog  Heavy snow  Heavy precipitations  Wind > 20 kt
SIGMETs :     Misc.  Thunderstorms  Icing  Turbulence  Mountain Waves  Volcanic Ashes






- Airport Elevation : 49 ft
- IATA code : GLZ


EHGR - Gilze-Rijen Airbase

CURRENT METAR :
  • 281255Z AUTO 19014KT 120V240 9999 FEW090 OVC098 07/01 Q1013 BLU 21006KT CAVOK

EXPIRED METARs :
  • 281225Z AUTO 19015KT 140V250 9999 OVC100 07/01 Q1013 BLU 21006KT CAVOK
  • 281155Z AUTO 19014KT 140V230 9999 OVC100 06/01 Q1014 BLU 21006KT CAVOK
  • 281125Z AUTO 19012KT 140V260 9999 OVC100 06/01 Q1015 BLU 21006KT CAVOK
  • 281055Z AUTO 19011KT 150V240 9999 OVC110 05/01 Q1015 BLU 21006KT CAVOK
  • 281025Z AUTO 20010KT 150V240 9999 OVC110 05/01 Q1016 BLU 21006KT CAVOK

TAF TAF EHGR
Valid from the 28 at 10:00 until the 28 at 22:00 UTC


280947Z 2810/2822 20007KT 9999 FEW025
BECMG 2815/2818 19016G30KT SCT015 BKN020
TEMPO 2816/2822 4000 RADZ SCT006 BKN007
PROB30
TEMPO 2819/2822 3000 DZRA SCT004 BKN006



MET'MAP, your aeronautical weather chart ! - Copyright ORBIFLY December 2007 - Disclaimer

ORBIFLY MET'MAP TEAM :

Programming & Development : Alexandra Zaïnal
Concept & original design : Baudouin d'Aumeries
Assistance for programming : Marc-Olivier Méhu
Technical & hardware support : Manuel Goepfert

Contact : metmap@orbifly.com




SOURCES & CREDITS :

   NOAA